This is the latest recevied weather packets stored in our database for station/object XQ6AK-15. If no packets are shown the sender has not sent any weather packets the latest 10 day(s).
| Time | Temp. | Humidity | Pressure | Rain* | Wind** | Luminosity | Snow |
|---|---|---|---|---|---|---|---|
| 1788021334 | 12.22° C | 87% | 1008.4 hPa | 0 mm | - | 323 W/m² | - |
| 1788021029 | 12.22° C | 88% | 1008.2 hPa | 0 mm | - | 472 W/m² | - |
| 1788020725 | 12.22° C | 88% | 1008.4 hPa | 0 mm | - | 288 W/m² | - |
| 1788020420 | 12.22° C | 88% | 1008.4 hPa | 0 mm | - | 346 W/m² | - |
| 1788020116 | 12.22° C | 87% | 1008.3 hPa | 0 mm | - | 304 W/m² | - |
| 1788019810 | 13.33° C | 84% | 1008.4 hPa | 0 mm | - | 310 W/m² | - |
| 1788019510 | 12.78° C | 86% | 1008.3 hPa | 0 mm | - | 355 W/m² | - |
| 1788019209 | 13.33° C | 85% | 1008.3 hPa | 0 mm | - | 330 W/m² | - |
| 1788018908 | 12.78° C | 88% | 1008.5 hPa | 0 mm | - | 616 W/m² | - |
| 1788018603 | 11.67° C | 89% | 1008.2 hPa | 0 mm | - | 528 W/m² | - |
| 1788018302 | 11.11° C | 91% | 1008.3 hPa | 0 mm | - | 246 W/m² | - |
| 1788017998 | 11.11° C | 93% | 1008.3 hPa | 0 mm | - | 219 W/m² | - |
| 1788017694 | 11.11° C | 93% | 1008.2 hPa | 0 mm | - | 265 W/m² | - |
| 1788017390 | 11.11° C | 91% | 1008.1 hPa | 0 mm | - | 161 W/m² | - |
| 1788017086 | 11.67° C | 91% | 1008.1 hPa | 0 mm | - | 233 W/m² | - |
| 1788016786 | 11.11° C | 91% | 1007.9 hPa | 0 mm | - | 301 W/m² | - |
| 1788016484 | 10.56° C | 93% | 1008 hPa | 0 mm | - | 379 W/m² | - |
| 1788016179 | 10.56° C | 94% | 1008.1 hPa | 0 mm | - | 215 W/m² | - |
| 1788015877 | 10° C | 95% | 1008 hPa | 0 mm | - | 168 W/m² | - |
| 1788015573 | 10° C | 94% | 1008.3 hPa | 0 mm | - | 167 W/m² | - |
| 1788015262 | 10° C | 95% | 1007.9 hPa | 0 mm | - | 147 W/m² | - |
| 1788014960 | 10° C | 97% | 1008 hPa | 0 mm | - | 129 W/m² | - |
| 1788014655 | 10° C | 99% | 1007.8 hPa | 0 mm | - | 117 W/m² | - |
| 1788014350 | 10° C | 99% | 1007.6 hPa | 0 mm | - | 124 W/m² | - |
| 1788014046 | 9.44° C | 99% | 1007.8 hPa | 0 mm | - | 137 W/m² | - |
* Rain latest hour (hover to see other rain measurements)
** Current wind speed in m/s (hover to see current wind gust speed)